sensor_id;sensor_type;location;lat;lon;timestamp;pressure;altitude;pressure_sealevel;temperature;humidity
24104;BME280;12278;53.058;9.028;2022-07-25T00:02:33;100908.41;;;22.57;68.15
24104;BME280;12278;53.058;9.028;2022-07-25T00:06:34;100898.59;;;22.53;68.27
24104;BME280;12278;53.058;9.028;2022-07-25T00:10:35;100897.06;;;22.68;67.51
24104;BME280;12278;53.058;9.028;2022-07-25T00:14:36;100887.28;;;22.64;67.89
24104;BME280;12278;53.058;9.028;2022-07-25T00:18:37;100886.78;;;22.54;68.36
24104;BME280;12278;53.058;9.028;2022-07-25T00:22:38;100884.38;;;22.46;69.00
24104;BME280;12278;53.058;9.028;2022-07-25T00:26:39;100877.63;;;22.35;69.16
24104;BME280;12278;53.058;9.028;2022-07-25T00:30:40;100865.13;;;22.31;68.80
24104;BME280;12278;53.058;9.028;2022-07-25T00:34:41;100866.81;;;22.33;68.60
24104;BME280;12278;53.058;9.028;2022-07-25T00:38:42;100860.31;;;22.37;68.00
24104;BME280;12278;53.058;9.028;2022-07-25T00:42:42;100858.81;;;22.30;68.45
24104;BME280;12278;53.058;9.028;2022-07-25T00:46:43;100858.34;;;22.19;69.69
24104;BME280;12278;53.058;9.028;2022-07-25T00:50:44;100856.78;;;22.13;69.76
24104;BME280;12278;53.058;9.028;2022-07-25T00:54:45;100853.63;;;22.24;68.97
24104;BME280;12278;53.058;9.028;2022-07-25T00:58:46;100847.41;;;22.20;68.10
24104;BME280;12278;53.058;9.028;2022-07-25T01:02:47;100845.34;;;22.27;68.12
24104;BME280;12278;53.058;9.028;2022-07-25T01:06:48;100843.75;;;22.21;68.46
24104;BME280;12278;53.058;9.028;2022-07-25T01:10:49;100846.31;;;22.26;67.47
24104;BME280;12278;53.058;9.028;2022-07-25T01:14:50;100848.28;;;22.22;67.72
24104;BME280;12278;53.058;9.028;2022-07-25T01:18:51;100840.75;;;22.29;67.28
24104;BME280;12278;53.058;9.028;2022-07-25T01:22:53;100833.09;;;22.17;67.40
24104;BME280;12278;53.058;9.028;2022-07-25T01:26:54;100822.88;;;22.23;66.70
24104;BME280;12278;53.058;9.028;2022-07-25T01:30:55;100817.94;;;22.11;67.41
24104;BME280;12278;53.058;9.028;2022-07-25T01:34:56;100814.53;;;22.06;67.12
24104;BME280;12278;53.058;9.028;2022-07-25T01:38:56;100807.53;;;21.99;67.11
24104;BME280;12278;53.058;9.028;2022-07-25T01:42:57;100799.59;;;21.94;67.32
24104;BME280;12278;53.058;9.028;2022-07-25T01:46:58;100804.94;;;21.96;66.93
24104;BME280;12278;53.058;9.028;2022-07-25T01:50:59;100805.91;;;21.95;66.87
24104;BME280;12278;53.058;9.028;2022-07-25T01:54:59;100791.50;;;21.93;66.67
24104;BME280;12278;53.058;9.028;2022-07-25T01:59:00;100787.09;;;21.90;67.03
24104;BME280;12278;53.058;9.028;2022-07-25T02:03:01;100780.47;;;21.76;67.07
24104;BME280;12278;53.058;9.028;2022-07-25T02:07:23;100786.44;;;21.84;67.55
24104;BME280;12278;53.058;9.028;2022-07-25T02:11:23;100770.59;;;21.73;67.43
24104;BME280;12278;53.058;9.028;2022-07-25T02:15:24;100763.41;;;21.72;67.69
24104;BME280;12278;53.058;9.028;2022-07-25T02:19:25;100764.38;;;21.71;67.30
24104;BME280;12278;53.058;9.028;2022-07-25T02:23:26;100766.63;;;21.60;68.25
24104;BME280;12278;53.058;9.028;2022-07-25T02:27:28;100758.88;;;21.49;68.50
24104;BME280;12278;53.058;9.028;2022-07-25T02:31:28;100750.94;;;21.45;68.43
24104;BME280;12278;53.058;9.028;2022-07-25T02:35:29;100746.81;;;21.34;68.69
24104;BME280;12278;53.058;9.028;2022-07-25T02:39:30;100737.63;;;21.39;68.46
24104;BME280;12278;53.058;9.028;2022-07-25T02:43:31;100736.59;;;21.18;69.39
24104;BME280;12278;53.058;9.028;2022-07-25T02:47:32;100735.94;;;21.11;69.57
24104;BME280;12278;53.058;9.028;2022-07-25T02:51:33;100721.63;;;21.07;69.42
24104;BME280;12278;53.058;9.028;2022-07-25T02:55:34;100724.03;;;21.15;69.73
24104;BME280;12278;53.058;9.028;2022-07-25T02:59:35;100720.63;;;21.10;69.16
24104;BME280;12278;53.058;9.028;2022-07-25T03:03:36;100708.25;;;21.03;69.11
24104;BME280;12278;53.058;9.028;2022-07-25T03:07:38;100707.78;;;20.92;69.37
24104;BME280;12278;53.058;9.028;2022-07-25T03:11:38;100699.56;;;20.93;69.21
24104;BME280;12278;53.058;9.028;2022-07-25T03:15:39;100699.56;;;20.93;69.12
24104;BME280;12278;53.058;9.028;2022-07-25T03:19:40;100704.00;;;20.96;68.92
24104;BME280;12278;53.058;9.028;2022-07-25T03:23:41;100695.34;;;20.86;68.89
24104;BME280;12278;53.058;9.028;2022-07-25T03:27:42;100697.81;;;20.92;68.49
24104;BME280;12278;53.058;9.028;2022-07-25T03:31:43;100689.16;;;20.83;68.75
24104;BME280;12278;53.058;9.028;2022-07-25T03:35:44;100681.72;;;20.88;68.21
24104;BME280;12278;53.058;9.028;2022-07-25T03:39:45;100678.91;;;20.91;67.96
24104;BME280;12278;53.058;9.028;2022-07-25T03:43:45;100675.63;;;20.83;68.13
24104;BME280;12278;53.058;9.028;2022-07-25T03:47:46;100671.28;;;20.77;68.54
24104;BME280;12278;53.058;9.028;2022-07-25T03:51:47;100669.25;;;20.84;67.79
24104;BME280;12278;53.058;9.028;2022-07-25T03:55:48;100663.47;;;20.93;67.36
24104;BME280;12278;53.058;9.028;2022-07-25T03:59:49;100645.63;;;20.87;67.41
24104;BME280;12278;53.058;9.028;2022-07-25T04:03:49;100640.19;;;20.87;67.31
24104;BME280;12278;53.058;9.028;2022-07-25T04:07:50;100640.25;;;20.86;67.14
24104;BME280;12278;53.058;9.028;2022-07-25T04:11:51;100637.06;;;20.98;66.93
24104;BME280;12278;53.058;9.028;2022-07-25T04:15:52;100621.88;;;20.94;67.19
24104;BME280;12278;53.058;9.028;2022-07-25T04:19:53;100621.44;;;21.04;66.48
24104;BME280;12278;53.058;9.028;2022-07-25T04:23:53;100609.72;;;21.04;66.55
24104;BME280;12278;53.058;9.028;2022-07-25T04:27:54;100605.06;;;21.07;66.35
24104;BME280;12278;53.058;9.028;2022-07-25T04:31:55;100604.72;;;21.15;66.38
24104;BME280;12278;53.058;9.028;2022-07-25T04:35:57;100600.63;;;21.28;66.26
24104;BME280;12278;53.058;9.028;2022-07-25T04:39:58;100596.75;;;21.34;65.77
24104;BME280;12278;53.058;9.028;2022-07-25T04:43:58;100584.06;;;21.36;65.75
24104;BME280;12278;53.058;9.028;2022-07-25T04:48:00;100577.53;;;21.40;65.59
24104;BME280;12278;53.058;9.028;2022-07-25T04:52:01;100586.38;;;21.45;65.72
24104;BME280;12278;53.058;9.028;2022-07-25T04:56:02;100576.25;;;21.49;65.62
24104;BME280;12278;53.058;9.028;2022-07-25T05:00:09;100566.66;;;21.62;65.43
24104;BME280;12278;53.058;9.028;2022-07-25T05:04:10;100562.53;;;21.53;65.55
24104;BME280;12278;53.058;9.028;2022-07-25T05:08:11;100563.63;;;21.70;65.45
24104;BME280;12278;53.058;9.028;2022-07-25T05:12:12;100563.00;;;21.63;64.66
24104;BME280;12278;53.058;9.028;2022-07-25T05:16:13;100561.22;;;21.62;65.38
24104;BME280;12278;53.058;9.028;2022-07-25T05:20:14;100558.25;;;21.68;65.96
24104;BME280;12278;53.058;9.028;2022-07-25T05:24:15;100558.81;;;21.76;66.20
24104;BME280;12278;53.058;9.028;2022-07-25T05:28:16;100567.53;;;22.03;65.60
24104;BME280;12278;53.058;9.028;2022-07-25T05:32:17;100556.47;;;22.09;65.30
24104;BME280;12278;53.058;9.028;2022-07-25T05:36:18;100554.63;;;22.10;64.72
24104;BME280;12278;53.058;9.028;2022-07-25T05:40:19;100551.25;;;22.05;65.07
24104;BME280;12278;53.058;9.028;2022-07-25T05:44:20;100560.06;;;22.10;65.33
24104;BME280;12278;53.058;9.028;2022-07-25T05:48:21;100555.78;;;22.04;65.73
24104;BME280;12278;53.058;9.028;2022-07-25T05:52:22;100553.97;;;22.05;65.52
24104;BME280;12278;53.058;9.028;2022-07-25T05:56:23;100545.47;;;22.12;66.24
24104;BME280;12278;53.058;9.028;2022-07-25T06:00:24;100549.88;;;22.15;65.84
24104;BME280;12278;53.058;9.028;2022-07-25T06:04:27;100544.69;;;22.29;65.71
24104;BME280;12278;53.058;9.028;2022-07-25T06:08:27;100542.88;;;22.48;65.22
24104;BME280;12278;53.058;9.028;2022-07-25T06:12:30;100542.31;;;22.79;64.61
24104;BME280;12278;53.058;9.028;2022-07-25T06:16:33;100545.53;;;23.06;63.67
24104;BME280;12278;53.058;9.028;2022-07-25T06:20:33;100543.38;;;23.32;63.07
24104;BME280;12278;53.058;9.028;2022-07-25T06:24:34;100553.59;;;23.63;62.90
24104;BME280;12278;53.058;9.028;2022-07-25T06:28:38;100546.88;;;23.70;62.46
24104;BME280;12278;53.058;9.028;2022-07-25T06:32:39;100553.13;;;23.72;62.99
24104;BME280;12278;53.058;9.028;2022-07-25T06:36:40;100550.22;;;23.92;61.73
24104;BME280;12278;53.058;9.028;2022-07-25T06:40:41;100547.63;;;24.24;60.91
24104;BME280;12278;53.058;9.028;2022-07-25T06:44:42;100541.50;;;24.53;60.55
24104;BME280;12278;53.058;9.028;2022-07-25T06:48:42;100529.63;;;24.54;60.03
24104;BME280;12278;53.058;9.028;2022-07-25T06:52:45;100531.59;;;24.68;59.43
24104;BME280;12278;53.058;9.028;2022-07-25T06:56:46;100533.16;;;24.88;60.21
24104;BME280;12278;53.058;9.028;2022-07-25T07:00:46;100535.94;;;25.19;58.65
24104;BME280;12278;53.058;9.028;2022-07-25T07:04:48;100530.38;;;25.51;58.30
24104;BME280;12278;53.058;9.028;2022-07-25T07:08:48;100524.66;;;25.71;58.28
24104;BME280;12278;53.058;9.028;2022-07-25T07:12:50;100527.06;;;26.20;56.42
24104;BME280;12278;53.058;9.028;2022-07-25T07:16:51;100522.41;;;26.51;56.72
24104;BME280;12278;53.058;9.028;2022-07-25T07:20:52;100510.66;;;26.91;56.05
24104;BME280;12278;53.058;9.028;2022-07-25T07:24:53;100508.13;;;27.29;54.31
24104;BME280;12278;53.058;9.028;2022-07-25T07:28:54;100499.91;;;27.42;53.41
24104;BME280;12278;53.058;9.028;2022-07-25T07:32:55;100494.97;;;27.61;53.12
24104;BME280;12278;53.058;9.028;2022-07-25T07:36:56;100507.28;;;27.94;53.11
24104;BME280;12278;53.058;9.028;2022-07-25T07:40:57;100488.03;;;28.34;53.25
24104;BME280;12278;53.058;9.028;2022-07-25T07:44:58;100493.22;;;28.88;51.81
24104;BME280;12278;53.058;9.028;2022-07-25T07:48:59;100485.38;;;28.94;52.55
24104;BME280;12278;53.058;9.028;2022-07-25T07:53:00;100464.31;;;28.07;51.22
24104;BME280;12278;53.058;9.028;2022-07-25T07:57:00;100466.75;;;27.86;51.90
24104;BME280;12278;53.058;9.028;2022-07-25T08:01:02;100459.41;;;27.87;51.92
24104;BME280;12278;53.058;9.028;2022-07-25T08:05:03;100449.22;;;28.02;53.49
24104;BME280;12278;53.058;9.028;2022-07-25T08:09:04;100441.31;;;27.72;53.28
24104;BME280;12278;53.058;9.028;2022-07-25T08:13:25;100440.88;;;27.65;53.65
24104;BME280;12278;53.058;9.028;2022-07-25T08:17:26;100438.03;;;27.79;53.81
24104;BME280;12278;53.058;9.028;2022-07-25T08:21:27;100433.81;;;28.24;52.81
24104;BME280;12278;53.058;9.028;2022-07-25T08:25:29;100449.38;;;28.99;52.52
24104;BME280;12278;53.058;9.028;2022-07-25T08:29:30;100447.16;;;29.52;50.79
24104;BME280;12278;53.058;9.028;2022-07-25T08:33:31;100443.84;;;29.82;49.20
24104;BME280;12278;53.058;9.028;2022-07-25T08:37:35;100440.75;;;29.86;49.76
24104;BME280;12278;53.058;9.028;2022-07-25T08:41:40;100439.91;;;30.42;48.82
24104;BME280;12278;53.058;9.028;2022-07-25T08:45:46;100435.53;;;30.62;46.70
24104;BME280;12278;53.058;9.028;2022-07-25T08:49:49;100434.22;;;30.88;48.04
24104;BME280;12278;53.058;9.028;2022-07-25T08:53:51;100422.00;;;30.70;48.52
24104;BME280;12278;53.058;9.028;2022-07-25T08:57:53;100419.97;;;30.83;47.28
24104;BME280;12278;53.058;9.028;2022-07-25T09:01:54;100425.41;;;31.05;47.49
24104;BME280;12278;53.058;9.028;2022-07-25T09:05:55;100409.97;;;30.82;47.65
24104;BME280;12278;53.058;9.028;2022-07-25T09:09:58;100400.00;;;30.58;47.53
24104;BME280;12278;53.058;9.028;2022-07-25T09:14:05;100396.66;;;30.44;47.16
24104;BME280;12278;53.058;9.028;2022-07-25T09:18:11;100389.88;;;30.48;47.99
24104;BME280;12278;53.058;9.028;2022-07-25T09:22:12;100391.09;;;30.77;46.80
24104;BME280;12278;53.058;9.028;2022-07-25T09:26:16;100393.94;;;30.87;46.72
24104;BME280;12278;53.058;9.028;2022-07-25T09:30:18;100393.31;;;30.83;46.37
24104;BME280;12278;53.058;9.028;2022-07-25T09:38:37;100374.63;;;30.55;46.04
24104;BME280;12278;53.058;9.028;2022-07-25T09:42:38;100384.00;;;31.07;45.72
24104;BME280;12278;53.058;9.028;2022-07-25T09:46:38;100374.88;;;30.74;45.00
24104;BME280;12278;53.058;9.028;2022-07-25T09:50:39;100376.25;;;31.01;45.67
24104;BME280;12278;53.058;9.028;2022-07-25T09:54:40;100383.03;;;30.97;45.59
24104;BME280;12278;53.058;9.028;2022-07-25T09:58:41;100387.66;;;30.96;46.15
24104;BME280;12278;53.058;9.028;2022-07-25T10:03:17;100393.38;;;31.36;45.11
24104;BME280;12278;53.058;9.028;2022-07-25T10:07:20;100392.22;;;31.18;45.61
24104;BME280;12278;53.058;9.028;2022-07-25T10:11:27;100369.97;;;30.78;46.96
24104;BME280;12278;53.058;9.028;2022-07-25T10:15:58;100366.00;;;30.59;46.09
24104;BME280;12278;53.058;9.028;2022-07-25T10:20:00;100357.53;;;30.29;46.58
24104;BME280;12278;53.058;9.028;2022-07-25T10:24:06;100365.28;;;30.35;47.43
24104;BME280;12278;53.058;9.028;2022-07-25T10:28:07;100374.50;;;30.45;48.30
24104;BME280;12278;53.058;9.028;2022-07-25T10:32:11;100379.81;;;30.92;48.00
24104;BME280;12278;53.058;9.028;2022-07-25T10:36:12;100385.28;;;31.76;46.98
24104;BME280;12278;53.058;9.028;2022-07-25T10:40:36;100361.47;;;31.55;45.43
24104;BME280;12278;53.058;9.028;2022-07-25T10:44:56;100357.72;;;31.35;45.28
24104;BME280;12278;53.058;9.028;2022-07-25T10:49:04;100366.09;;;31.54;45.96
24104;BME280;12278;53.058;9.028;2022-07-25T10:53:05;100353.03;;;31.26;45.41
24104;BME280;12278;53.058;9.028;2022-07-25T10:57:14;100364.28;;;31.23;46.64
24104;BME280;12278;53.058;9.028;2022-07-25T11:01:29;100358.66;;;31.45;45.81
24104;BME280;12278;53.058;9.028;2022-07-25T11:05:31;100367.41;;;32.01;46.72
24104;BME280;12278;53.058;9.028;2022-07-25T11:09:43;100362.03;;;32.00;46.00
24104;BME280;12278;53.058;9.028;2022-07-25T11:13:44;100369.44;;;31.99;45.82
24104;BME280;12278;53.058;9.028;2022-07-25T11:17:51;100357.03;;;32.24;46.63
24104;BME280;12278;53.058;9.028;2022-07-25T11:21:58;100368.31;;;33.02;44.21
24104;BME280;12278;53.058;9.028;2022-07-25T11:26:18;100335.84;;;32.25;45.47
24104;BME280;12278;53.058;9.028;2022-07-25T11:30:19;100333.47;;;32.10;44.05
24104;BME280;12278;53.058;9.028;2022-07-25T11:34:30;100330.94;;;31.67;44.67
24104;BME280;12278;53.058;9.028;2022-07-25T11:38:33;100331.63;;;31.81;44.41
24104;BME280;12278;53.058;9.028;2022-07-25T11:42:46;100340.34;;;32.16;45.34
24104;BME280;12278;53.058;9.028;2022-07-25T11:46:47;100342.66;;;32.71;43.41
24104;BME280;12278;53.058;9.028;2022-07-25T11:50:48;100339.06;;;32.89;42.79
24104;BME280;12278;53.058;9.028;2022-07-25T11:55:00;100330.19;;;32.26;44.55
24104;BME280;12278;53.058;9.028;2022-07-25T11:59:01;100328.22;;;31.46;45.61
24104;BME280;12278;53.058;9.028;2022-07-25T12:03:08;100331.75;;;31.58;46.40
24104;BME280;12278;53.058;9.028;2022-07-25T12:07:09;100340.81;;;31.70;45.25
24104;BME280;12278;53.058;9.028;2022-07-25T12:11:21;100342.31;;;32.45;44.57
24104;BME280;12278;53.058;9.028;2022-07-25T12:15:30;100326.94;;;32.02;45.06
24104;BME280;12278;53.058;9.028;2022-07-25T12:19:31;100322.16;;;31.53;46.32
24104;BME280;12278;53.058;9.028;2022-07-25T12:23:32;100326.13;;;31.60;45.84
24104;BME280;12278;53.058;9.028;2022-07-25T12:27:34;100338.75;;;31.41;46.28
24104;BME280;12278;53.058;9.028;2022-07-25T12:31:34;100342.06;;;31.35;46.52
24104;BME280;12278;53.058;9.028;2022-07-25T12:35:35;100325.13;;;31.40;46.17
24104;BME280;12278;53.058;9.028;2022-07-25T12:39:37;100340.13;;;31.47;46.54
24104;BME280;12278;53.058;9.028;2022-07-25T12:43:37;100322.00;;;31.75;44.78
24104;BME280;12278;53.058;9.028;2022-07-25T12:47:38;100338.59;;;32.15;45.10
24104;BME280;12278;53.058;9.028;2022-07-25T12:51:39;100337.44;;;32.18;45.32
24104;BME280;12278;53.058;9.028;2022-07-25T12:55:40;100327.28;;;31.88;45.81
24104;BME280;12278;53.058;9.028;2022-07-25T12:59:41;100325.44;;;31.67;46.69
24104;BME280;12278;53.058;9.028;2022-07-25T13:03:42;100318.78;;;31.70;46.86
24104;BME280;12278;53.058;9.028;2022-07-25T13:07:43;100318.31;;;31.86;45.77
24104;BME280;12278;53.058;9.028;2022-07-25T13:11:44;100325.97;;;31.82;47.16
24104;BME280;12278;53.058;9.028;2022-07-25T13:15:45;100331.91;;;31.77;47.88
24104;BME280;12278;53.058;9.028;2022-07-25T13:19:46;100322.22;;;31.62;46.84
24104;BME280;12278;53.058;9.028;2022-07-25T13:23:47;100326.31;;;31.68;47.29
24104;BME280;12278;53.058;9.028;2022-07-25T13:27:48;100327.28;;;32.18;46.68
24104;BME280;12278;53.058;9.028;2022-07-25T13:31:49;100331.00;;;32.38;46.66
24104;BME280;12278;53.058;9.028;2022-07-25T13:35:50;100328.66;;;32.03;47.52
24104;BME280;12278;53.058;9.028;2022-07-25T13:39:51;100333.63;;;32.09;47.74
24104;BME280;12278;53.058;9.028;2022-07-25T13:43:53;100334.44;;;31.69;49.68
24104;BME280;12278;53.058;9.028;2022-07-25T13:47:55;100342.25;;;31.23;51.65
24104;BME280;12278;53.058;9.028;2022-07-25T13:51:56;100349.88;;;31.30;52.84
24104;BME280;12278;53.058;9.028;2022-07-25T13:55:58;100349.19;;;31.06;53.41
24104;BME280;12278;53.058;9.028;2022-07-25T14:00:00;100349.56;;;30.80;55.00
24104;BME280;12278;53.058;9.028;2022-07-25T14:04:01;100365.75;;;31.68;54.02
24104;BME280;12278;53.058;9.028;2022-07-25T14:08:02;100364.34;;;31.53;53.32
24104;BME280;12278;53.058;9.028;2022-07-25T14:12:04;100373.19;;;31.15;53.67
24104;BME280;12278;53.058;9.028;2022-07-25T14:16:05;100379.56;;;31.15;52.59
24104;BME280;12278;53.058;9.028;2022-07-25T14:20:07;100391.84;;;31.64;50.52
24104;BME280;12278;53.058;9.028;2022-07-25T14:24:08;100399.31;;;31.94;49.40
24104;BME280;12278;53.058;9.028;2022-07-25T14:28:09;100364.25;;;30.02;52.64
24104;BME280;12278;53.058;9.028;2022-07-25T14:32:10;100377.09;;;27.88;55.71
24104;BME280;12278;53.058;9.028;2022-07-25T14:36:12;100386.22;;;27.11;57.92
24104;BME280;12278;53.058;9.028;2022-07-25T14:40:13;100409.47;;;26.36;60.71
24104;BME280;12278;53.058;9.028;2022-07-25T14:44:14;100409.91;;;25.87;62.72
24104;BME280;12278;53.058;9.028;2022-07-25T14:48:14;100416.41;;;25.10;65.04
24104;BME280;12278;53.058;9.028;2022-07-25T14:52:15;100412.25;;;24.73;70.59
24104;BME280;12278;53.058;9.028;2022-07-25T14:56:16;100416.66;;;23.95;76.19
24104;BME280;12278;53.058;9.028;2022-07-25T15:00:17;100450.16;;;23.28;80.49
24104;BME280;12278;53.058;9.028;2022-07-25T15:04:19;100498.38;;;22.89;85.04
24104;BME280;12278;53.058;9.028;2022-07-25T15:08:22;100478.94;;;23.15;84.87
24104;BME280;12278;53.058;9.028;2022-07-25T15:12:23;100492.41;;;23.87;86.01
24104;BME280;12278;53.058;9.028;2022-07-25T15:16:24;100478.91;;;24.68;82.88
24104;BME280;12278;53.058;9.028;2022-07-25T15:20:25;100487.59;;;25.21;82.69
24104;BME280;12278;53.058;9.028;2022-07-25T15:24:26;100491.47;;;26.50;73.65
24104;BME280;12278;53.058;9.028;2022-07-25T15:28:27;100499.63;;;27.59;69.15
24104;BME280;12278;53.058;9.028;2022-07-25T15:32:28;100476.72;;;27.87;67.08
24104;BME280;12278;53.058;9.028;2022-07-25T15:36:30;100482.97;;;27.89;69.45
24104;BME280;12278;53.058;9.028;2022-07-25T15:40:31;100466.88;;;26.22;72.58
24104;BME280;12278;53.058;9.028;2022-07-25T15:44:32;100470.94;;;25.26;77.44
24104;BME280;12278;53.058;9.028;2022-07-25T15:48:35;100463.72;;;25.25;77.11
24104;BME280;12278;53.058;9.028;2022-07-25T15:52:36;100483.25;;;26.07;74.89
24104;BME280;12278;53.058;9.028;2022-07-25T15:56:37;100492.66;;;26.87;70.10
24104;BME280;12278;53.058;9.028;2022-07-25T16:00:39;100480.59;;;27.18;69.49
24104;BME280;12278;53.058;9.028;2022-07-25T16:04:41;100477.38;;;25.99;72.24
24104;BME280;12278;53.058;9.028;2022-07-25T16:08:42;100468.38;;;25.39;72.94
24104;BME280;12278;53.058;9.028;2022-07-25T16:12:43;100481.47;;;25.02;75.64
24104;BME280;12278;53.058;9.028;2022-07-25T16:16:44;100474.75;;;24.76;76.14
24104;BME280;12278;53.058;9.028;2022-07-25T16:20:45;100494.47;;;24.50;77.72
24104;BME280;12278;53.058;9.028;2022-07-25T16:24:46;100518.09;;;24.49;78.24
24104;BME280;12278;53.058;9.028;2022-07-25T16:28:47;100523.56;;;24.49;76.47
24104;BME280;12278;53.058;9.028;2022-07-25T16:32:50;100527.66;;;24.23;74.52
24104;BME280;12278;53.058;9.028;2022-07-25T16:36:51;100526.56;;;24.76;73.82
24104;BME280;12278;53.058;9.028;2022-07-25T16:40:53;100541.78;;;25.43;71.06
24104;BME280;12278;53.058;9.028;2022-07-25T16:44:54;100520.00;;;25.58;68.46
24104;BME280;12278;53.058;9.028;2022-07-25T16:48:55;100524.44;;;25.29;68.71
24104;BME280;12278;53.058;9.028;2022-07-25T16:52:56;100517.75;;;24.55;70.57
24104;BME280;12278;53.058;9.028;2022-07-25T16:56:57;100518.97;;;24.34;71.60
24104;BME280;12278;53.058;9.028;2022-07-25T17:00:58;100531.00;;;24.13;72.19
24104;BME280;12278;53.058;9.028;2022-07-25T17:05:00;100528.03;;;24.00;70.19
24104;BME280;12278;53.058;9.028;2022-07-25T17:09:00;100526.88;;;24.21;69.46
24104;BME280;12278;53.058;9.028;2022-07-25T17:13:02;100517.97;;;23.85;67.81
24104;BME280;12278;53.058;9.028;2022-07-25T17:17:04;100531.09;;;23.76;68.34
24104;BME280;12278;53.058;9.028;2022-07-25T17:21:06;100521.63;;;23.49;69.72
24104;BME280;12278;53.058;9.028;2022-07-25T17:25:07;100536.09;;;23.32;70.22
24104;BME280;12278;53.058;9.028;2022-07-25T17:29:08;100523.13;;;23.01;69.75
24104;BME280;12278;53.058;9.028;2022-07-25T17:33:09;100534.03;;;22.82;69.73
24104;BME280;12278;53.058;9.028;2022-07-25T17:37:11;100533.94;;;22.65;70.79
24104;BME280;12278;53.058;9.028;2022-07-25T17:41:12;100542.03;;;22.85;70.13
24104;BME280;12278;53.058;9.028;2022-07-25T17:45:13;100535.63;;;22.86;70.95
24104;BME280;12278;53.058;9.028;2022-07-25T17:49:14;100536.53;;;22.87;70.86
24104;BME280;12278;53.058;9.028;2022-07-25T17:53:15;100532.75;;;22.71;70.74
24104;BME280;12278;53.058;9.028;2022-07-25T17:57:17;100522.91;;;22.68;71.38
24104;BME280;12278;53.058;9.028;2022-07-25T18:01:18;100535.47;;;22.71;71.56
24104;BME280;12278;53.058;9.028;2022-07-25T18:05:19;100544.50;;;22.90;71.32
24104;BME280;12278;53.058;9.028;2022-07-25T18:09:20;100531.66;;;23.12;70.36
24104;BME280;12278;53.058;9.028;2022-07-25T18:13:22;100542.06;;;23.22;70.06
24104;BME280;12278;53.058;9.028;2022-07-25T18:17:23;100537.25;;;23.09;70.09
24104;BME280;12278;53.058;9.028;2022-07-25T18:21:28;100543.19;;;22.99;70.93
24104;BME280;12278;53.058;9.028;2022-07-25T18:25:29;100551.19;;;23.02;71.36
24104;BME280;12278;53.058;9.028;2022-07-25T18:29:30;100551.00;;;23.24;71.22
24104;BME280;12278;53.058;9.028;2022-07-25T18:33:32;100559.34;;;23.02;71.43
24104;BME280;12278;53.058;9.028;2022-07-25T18:37:33;100550.88;;;22.70;71.91
24104;BME280;12278;53.058;9.028;2022-07-25T18:41:34;100542.53;;;22.75;72.24
24104;BME280;12278;53.058;9.028;2022-07-25T18:45:37;100541.22;;;22.83;72.76
24104;BME280;12278;53.058;9.028;2022-07-25T18:49:37;100544.91;;;22.82;72.33
24104;BME280;12278;53.058;9.028;2022-07-25T18:53:38;100541.84;;;22.70;72.92
24104;BME280;12278;53.058;9.028;2022-07-25T18:57:40;100557.28;;;22.69;72.65
24104;BME280;12278;53.058;9.028;2022-07-25T19:01:41;100556.78;;;22.80;72.97
24104;BME280;12278;53.058;9.028;2022-07-25T19:05:43;100571.47;;;22.76;72.80
24104;BME280;12278;53.058;9.028;2022-07-25T19:09:44;100581.31;;;22.78;73.42
24104;BME280;12278;53.058;9.028;2022-07-25T19:13:46;100579.72;;;22.74;69.71
24104;BME280;12278;53.058;9.028;2022-07-25T19:17:47;100572.94;;;22.64;65.87
24104;BME280;12278;53.058;9.028;2022-07-25T19:21:48;100582.75;;;22.48;65.19
24104;BME280;12278;53.058;9.028;2022-07-25T19:25:49;100580.50;;;22.37;65.00
24104;BME280;12278;53.058;9.028;2022-07-25T19:29:50;100595.28;;;22.32;64.28
24104;BME280;12278;53.058;9.028;2022-07-25T19:33:51;100593.97;;;22.20;64.60
24104;BME280;12278;53.058;9.028;2022-07-25T19:37:52;100609.97;;;22.07;63.64
24104;BME280;12278;53.058;9.028;2022-07-25T19:41:53;100618.38;;;22.00;63.70
24104;BME280;12278;53.058;9.028;2022-07-25T19:45:54;100610.53;;;21.93;63.75
24104;BME280;12278;53.058;9.028;2022-07-25T19:49:55;100608.66;;;21.74;63.68
24104;BME280;12278;53.058;9.028;2022-07-25T19:53:57;100616.56;;;21.58;63.60
24104;BME280;12278;53.058;9.028;2022-07-25T19:57:58;100613.47;;;21.45;64.32
24104;BME280;12278;53.058;9.028;2022-07-25T20:01:59;100626.78;;;21.29;65.32
24104;BME280;12278;53.058;9.028;2022-07-25T20:06:00;100625.16;;;21.25;65.84
24104;BME280;12278;53.058;9.028;2022-07-25T20:10:01;100625.31;;;21.21;65.92
24104;BME280;12278;53.058;9.028;2022-07-25T20:14:02;100639.97;;;21.15;66.42
24104;BME280;12278;53.058;9.028;2022-07-25T20:18:03;100634.28;;;20.99;67.69
24104;BME280;12278;53.058;9.028;2022-07-25T20:22:05;100648.03;;;20.95;67.60
24104;BME280;12278;53.058;9.028;2022-07-25T20:26:06;100645.00;;;20.79;68.26
24104;BME280;12278;53.058;9.028;2022-07-25T20:30:09;100653.03;;;20.82;68.23
24104;BME280;12278;53.058;9.028;2022-07-25T20:34:13;100645.00;;;20.79;68.39
24104;BME280;12278;53.058;9.028;2022-07-25T20:38:14;100638.34;;;20.64;68.72
24104;BME280;12278;53.058;9.028;2022-07-25T20:42:16;100649.59;;;20.54;69.56
24104;BME280;12278;53.058;9.028;2022-07-25T20:46:17;100665.75;;;20.57;69.79
24104;BME280;12278;53.058;9.028;2022-07-25T20:50:18;100664.34;;;20.45;69.56
24104;BME280;12278;53.058;9.028;2022-07-25T20:54:19;100661.91;;;20.37;69.85
24104;BME280;12278;53.058;9.028;2022-07-25T20:58:20;100662.16;;;20.30;70.46
24104;BME280;12278;53.058;9.028;2022-07-25T21:02:20;100666.28;;;20.41;71.00
24104;BME280;12278;53.058;9.028;2022-07-25T21:06:21;100675.31;;;20.40;70.29
24104;BME280;12278;53.058;9.028;2022-07-25T21:10:22;100674.06;;;20.26;70.78